sensor_id;sensor_type;location;lat;lon;timestamp;pressure;altitude;pressure_sealevel;temperature;humidity
20628;BME280;10473;42.734;24.258;2022-10-17T00:00:10;93112.31;;;7.04;58.42
20628;BME280;10473;42.734;24.258;2022-10-17T00:02:38;93116.59;;;7.34;58.27
20628;BME280;10473;42.734;24.258;2022-10-17T00:05:07;93114.78;;;7.17;58.50
20628;BME280;10473;42.734;24.258;2022-10-17T00:07:35;93138.06;;;7.07;58.85
20628;BME280;10473;42.734;24.258;2022-10-17T00:10:05;93114.47;;;7.19;58.06
20628;BME280;10473;42.734;24.258;2022-10-17T00:12:34;93125.44;;;7.29;57.93
20628;BME280;10473;42.734;24.258;2022-10-17T00:15:03;93131.41;;;6.58;58.84
20628;BME280;10473;42.734;24.258;2022-10-17T00:17:31;93129.38;;;6.89;58.67
20628;BME280;10473;42.734;24.258;2022-10-17T00:19:59;93115.41;;;7.06;59.15
20628;BME280;10473;42.734;24.258;2022-10-17T00:22:27;93134.94;;;7.05;58.25
20628;BME280;10473;42.734;24.258;2022-10-17T00:24:56;93132.47;;;7.17;57.16
20628;BME280;10473;42.734;24.258;2022-10-17T00:27:25;93120.53;;;7.19;57.31
20628;BME280;10473;42.734;24.258;2022-10-17T00:29:53;93125.94;;;7.06;57.97
20628;BME280;10473;42.734;24.258;2022-10-17T00:32:21;93131.53;;;7.13;57.85
20628;BME280;10473;42.734;24.258;2022-10-17T00:34:49;93129.50;;;7.27;57.00
20628;BME280;10473;42.734;24.258;2022-10-17T00:37:17;93127.34;;;7.03;58.24
20628;BME280;10473;42.734;24.258;2022-10-17T00:39:45;93130.72;;;7.21;58.18
20628;BME280;10473;42.734;24.258;2022-10-17T00:42:13;93129.50;;;7.10;59.13
20628;BME280;10473;42.734;24.258;2022-10-17T00:45:09;93135.53;;;7.27;58.76
20628;BME280;10473;42.734;24.258;2022-10-17T00:47:44;93132.75;;;7.24;58.55
20628;BME280;10473;42.734;24.258;2022-10-17T00:50:14;93135.44;;;6.81;60.19
20628;BME280;10473;42.734;24.258;2022-10-17T00:52:42;93112.00;;;6.97;59.36
20628;BME280;10473;42.734;24.258;2022-10-17T00:55:13;93117.94;;;6.94;59.63
20628;BME280;10473;42.734;24.258;2022-10-17T00:57:43;93129.53;;;7.01;59.17
20628;BME280;10473;42.734;24.258;2022-10-17T01:00:16;93123.78;;;7.08;59.81
20628;BME280;10473;42.734;24.258;2022-10-17T01:02:44;93122.25;;;7.07;58.81
20628;BME280;10473;42.734;24.258;2022-10-17T01:05:15;93129.06;;;7.08;59.78
20628;BME280;10473;42.734;24.258;2022-10-17T01:07:44;93124.06;;;7.15;58.24
20628;BME280;10473;42.734;24.258;2022-10-17T01:10:12;93125.66;;;7.07;59.44
20628;BME280;10473;42.734;24.258;2022-10-17T01:12:51;93124.25;;;7.10;58.54
20628;BME280;10473;42.734;24.258;2022-10-17T01:15:35;93131.44;;;6.50;60.50
20628;BME280;10473;42.734;24.258;2022-10-17T01:18:18;93124.13;;;6.81;60.83
20628;BME280;10473;42.734;24.258;2022-10-17T01:21:07;93121.81;;;6.71;60.20
20628;BME280;10473;42.734;24.258;2022-10-17T01:27:19;93122.44;;;6.76;60.75
20628;BME280;10473;42.734;24.258;2022-10-17T01:29:59;93123.22;;;6.60;61.13
20628;BME280;10473;42.734;24.258;2022-10-17T01:32:34;93111.13;;;6.76;60.79
20628;BME280;10473;42.734;24.258;2022-10-17T01:35:09;93115.47;;;6.55;61.62
20628;BME280;10473;42.734;24.258;2022-10-17T01:37:44;93109.91;;;6.65;61.17
20628;BME280;10473;42.734;24.258;2022-10-17T01:40:19;93117.03;;;6.73;61.92
20628;BME280;10473;42.734;24.258;2022-10-17T01:42:54;93109.72;;;6.78;61.91
20628;BME280;10473;42.734;24.258;2022-10-17T01:45:27;93116.09;;;6.69;61.79
20628;BME280;10473;42.734;24.258;2022-10-17T01:48:07;93117.03;;;6.73;61.60
20628;BME280;10473;42.734;24.258;2022-10-17T01:50:38;93123.50;;;6.67;62.20
20628;BME280;10473;42.734;24.258;2022-10-17T01:53:12;93121.97;;;6.74;62.05
20628;BME280;10473;42.734;24.258;2022-10-17T01:55:43;93127.22;;;6.23;63.35
20628;BME280;10473;42.734;24.258;2022-10-17T01:58:15;93105.88;;;6.33;64.01
20628;BME280;10473;42.734;24.258;2022-10-17T02:00:47;93112.38;;;6.36;64.14
20628;BME280;10473;42.734;24.258;2022-10-17T02:03:19;93093.78;;;6.15;63.48
20628;BME280;10473;42.734;24.258;2022-10-17T02:05:47;93135.44;;;6.47;62.63
20628;BME280;10473;42.734;24.258;2022-10-17T02:08:25;93125.84;;;6.51;62.04
20628;BME280;10473;42.734;24.258;2022-10-17T02:10:56;93135.13;;;6.57;62.41
20628;BME280;10473;42.734;24.258;2022-10-17T02:13:36;93134.69;;;6.64;61.87
20628;BME280;10473;42.734;24.258;2022-10-17T02:16:16;93130.50;;;6.63;61.43
20628;BME280;10473;42.734;24.258;2022-10-17T02:19:01;93140.72;;;6.64;61.33
20628;BME280;10473;42.734;24.258;2022-10-17T02:21:42;93138.69;;;6.70;61.64
20628;BME280;10473;42.734;24.258;2022-10-17T02:24:19;93134.03;;;6.67;62.00
20628;BME280;10473;42.734;24.258;2022-10-17T02:26:55;93124.91;;;6.64;61.49
20628;BME280;10473;42.734;24.258;2022-10-17T02:29:30;93138.22;;;6.34;61.84
20628;BME280;10473;42.734;24.258;2022-10-17T02:32:04;93151.78;;;6.10;62.35
20628;BME280;10473;42.734;24.258;2022-10-17T02:34:38;93141.91;;;6.33;62.65
20628;BME280;10473;42.734;24.258;2022-10-17T02:37:09;93132.19;;;6.25;62.77
20628;BME280;10473;42.734;24.258;2022-10-17T02:39:39;93156.81;;;6.46;62.88
20628;BME280;10473;42.734;24.258;2022-10-17T02:42:12;93161.47;;;6.40;62.73
20628;BME280;10473;42.734;24.258;2022-10-17T02:44:42;93162.84;;;6.55;61.73
20628;BME280;10473;42.734;24.258;2022-10-17T02:47:18;93155.41;;;6.57;62.43
20628;BME280;10473;42.734;24.258;2022-10-17T02:49:52;93161.16;;;6.59;62.31
20628;BME280;10473;42.734;24.258;2022-10-17T02:52:25;93163.47;;;6.26;62.98
20628;BME280;10473;42.734;24.258;2022-10-17T02:54:58;93168.72;;;6.43;62.72
20628;BME280;10473;42.734;24.258;2022-10-17T02:57:32;93165.47;;;6.38;62.67
20628;BME280;10473;42.734;24.258;2022-10-17T03:00:01;93159.91;;;6.39;62.22
20628;BME280;10473;42.734;24.258;2022-10-17T03:02:38;93171.44;;;6.13;63.24
20628;BME280;10473;42.734;24.258;2022-10-17T03:05:09;93172.09;;;6.10;64.26
20628;BME280;10473;42.734;24.258;2022-10-17T03:07:38;93171.63;;;6.16;63.41
20628;BME280;10473;42.734;24.258;2022-10-17T03:10:06;93157.72;;;6.24;63.82
20628;BME280;10473;42.734;24.258;2022-10-17T03:12:34;93167.41;;;5.98;64.34
20628;BME280;10473;42.734;24.258;2022-10-17T03:15:06;93173.34;;;6.21;62.85
20628;BME280;10473;42.734;24.258;2022-10-17T03:17:34;93170.84;;;6.16;64.28
20628;BME280;10473;42.734;24.258;2022-10-17T03:20:03;93135.81;;;5.90;64.32
20628;BME280;10473;42.734;24.258;2022-10-17T03:22:33;93157.72;;;6.24;63.42
20628;BME280;10473;42.734;24.258;2022-10-17T03:25:03;93167.19;;;6.34;63.83
20628;BME280;10473;42.734;24.258;2022-10-17T03:27:34;93174.28;;;6.16;62.66
20628;BME280;10473;42.734;24.258;2022-10-17T03:30:01;93163.75;;;6.25;63.11
20628;BME280;10473;42.734;24.258;2022-10-17T03:32:32;93169.97;;;6.29;63.92
20628;BME280;10473;42.734;24.258;2022-10-17T03:35:00;93162.06;;;6.37;63.20
20628;BME280;10473;42.734;24.258;2022-10-17T03:37:28;93161.44;;;6.23;62.52
20628;BME280;10473;42.734;24.258;2022-10-17T03:39:57;93172.75;;;6.24;63.71
20628;BME280;10473;42.734;24.258;2022-10-17T03:42:25;93162.66;;;6.09;64.90
20628;BME280;10473;42.734;24.258;2022-10-17T03:44:53;93158.94;;;6.18;64.97
20628;BME280;10473;42.734;24.258;2022-10-17T03:47:21;93163.75;;;6.16;65.29
20628;BME280;10473;42.734;24.258;2022-10-17T03:49:49;93174.13;;;6.21;65.81
20628;BME280;10473;42.734;24.258;2022-10-17T03:52:19;93167.31;;;6.29;65.41
20628;BME280;10473;42.734;24.258;2022-10-17T03:54:48;93176.63;;;6.35;64.66
20628;BME280;10473;42.734;24.258;2022-10-17T03:57:18;93185.56;;;6.25;64.49
20628;BME280;10473;42.734;24.258;2022-10-17T03:59:46;93154.63;;;6.22;65.42
20628;BME280;10473;42.734;24.258;2022-10-17T04:02:18;93166.09;;;6.26;64.45
20628;BME280;10473;42.734;24.258;2022-10-17T04:04:46;93174.84;;;6.05;65.54
20628;BME280;10473;42.734;24.258;2022-10-17T04:07:15;93179.44;;;5.82;65.85
20628;BME280;10473;42.734;24.258;2022-10-17T04:09:45;93174.72;;;6.10;64.47
20628;BME280;10473;42.734;24.258;2022-10-17T04:12:18;93176.41;;;6.06;64.69
20628;BME280;10473;42.734;24.258;2022-10-17T04:14:46;93178.09;;;6.10;64.62
20628;BME280;10473;42.734;24.258;2022-10-17T04:17:16;93178.09;;;6.02;65.16
20628;BME280;10473;42.734;24.258;2022-10-17T04:19:44;93165.88;;;6.06;65.03
20628;BME280;10473;42.734;24.258;2022-10-17T04:22:14;93170.69;;;6.12;65.40
20628;BME280;10473;42.734;24.258;2022-10-17T04:24:42;93150.25;;;6.01;64.85
20628;BME280;10473;42.734;24.258;2022-10-17T04:27:25;93178.75;;;6.16;65.26
20628;BME280;10473;42.734;24.258;2022-10-17T04:29:53;93175.50;;;6.19;64.60
20628;BME280;10473;42.734;24.258;2022-10-17T04:32:23;93193.59;;;6.20;65.17
20628;BME280;10473;42.734;24.258;2022-10-17T04:35:08;93176.13;;;6.16;65.49
20628;BME280;10473;42.734;24.258;2022-10-17T04:37:39;93182.63;;;5.79;65.97
20628;BME280;10473;42.734;24.258;2022-10-17T04:40:12;93167.28;;;5.73;67.75
20628;BME280;10473;42.734;24.258;2022-10-17T04:42:42;93169.44;;;5.71;66.51
20628;BME280;10473;42.734;24.258;2022-10-17T04:45:13;93196.31;;;5.90;66.18
20628;BME280;10473;42.734;24.258;2022-10-17T04:47:41;93190.13;;;5.64;67.00
20628;BME280;10473;42.734;24.258;2022-10-17T04:50:09;93176.81;;;5.91;66.75
20628;BME280;10473;42.734;24.258;2022-10-17T04:52:42;93181.66;;;6.06;65.67
20628;BME280;10473;42.734;24.258;2022-10-17T04:55:10;93184.13;;;5.94;66.34
20628;BME280;10473;42.734;24.258;2022-10-17T04:57:37;93194.91;;;5.62;67.36
20628;BME280;10473;42.734;24.258;2022-10-17T05:00:21;93168.06;;;6.04;66.29
20628;BME280;10473;42.734;24.258;2022-10-17T05:02:49;93197.31;;;6.19;66.53
20628;BME280;10473;42.734;24.258;2022-10-17T05:05:17;93204.97;;;6.55;66.47
20628;BME280;10473;42.734;24.258;2022-10-17T05:07:47;93197.09;;;6.89;65.10
20628;BME280;10473;42.734;24.258;2022-10-17T05:10:19;93208.56;;;7.27;65.62
20628;BME280;10473;42.734;24.258;2022-10-17T05:12:49;93226.28;;;7.72;62.07
20628;BME280;10473;42.734;24.258;2022-10-17T05:15:19;93232.25;;;7.44;62.63
20628;BME280;10473;42.734;24.258;2022-10-17T05:17:48;93227.84;;;7.82;61.06
20628;BME280;10473;42.734;24.258;2022-10-17T05:20:16;93242.56;;;8.29;61.31
20628;BME280;10473;42.734;24.258;2022-10-17T05:22:44;93237.84;;;8.72;59.19
20628;BME280;10473;42.734;24.258;2022-10-17T05:25:12;93238.97;;;9.12;60.74
20628;BME280;10473;42.734;24.258;2022-10-17T05:27:40;93244.22;;;9.53;58.41
20628;BME280;10473;42.734;24.258;2022-10-17T05:30:08;93246.31;;;9.92;59.63
20628;BME280;10473;42.734;24.258;2022-10-17T05:32:38;93237.38;;;10.29;58.85
20628;BME280;10473;42.734;24.258;2022-10-17T05:35:08;93245.13;;;10.82;56.66
20628;BME280;10473;42.734;24.258;2022-10-17T05:37:37;93252.78;;;11.23;53.72
20628;BME280;10473;42.734;24.258;2022-10-17T05:40:07;93238.31;;;11.48;52.76
20628;BME280;10473;42.734;24.258;2022-10-17T05:42:35;93255.44;;;11.90;53.82
20628;BME280;10473;42.734;24.258;2022-10-17T05:45:03;93266.28;;;12.28;53.38
20628;BME280;10473;42.734;24.258;2022-10-17T05:47:31;93264.94;;;12.65;53.48
20628;BME280;10473;42.734;24.258;2022-10-17T05:49:59;93258.94;;;12.99;53.80
20628;BME280;10473;42.734;24.258;2022-10-17T05:52:35;93253.91;;;13.47;51.31
20628;BME280;10473;42.734;24.258;2022-10-17T05:55:15;93284.19;;;13.96;50.21
20628;BME280;10473;42.734;24.258;2022-10-17T05:57:43;93277.72;;;14.35;48.14
20628;BME280;10473;42.734;24.258;2022-10-17T06:00:16;93282.19;;;14.73;49.29
20628;BME280;10473;42.734;24.258;2022-10-17T06:02:51;93272.94;;;15.15;46.45
20628;BME280;10473;42.734;24.258;2022-10-17T06:05:19;93282.09;;;15.40;48.24
20628;BME280;10473;42.734;24.258;2022-10-17T06:07:49;93273.44;;;15.76;44.90
20628;BME280;10473;42.734;24.258;2022-10-17T06:10:18;93272.75;;;16.16;42.63
20628;BME280;10473;42.734;24.258;2022-10-17T06:12:46;93285.25;;;16.05;42.20
20628;BME280;10473;42.734;24.258;2022-10-17T06:15:15;93270.66;;;15.99;43.80
20628;BME280;10473;42.734;24.258;2022-10-17T06:17:47;93282.25;;;16.43;47.63
20628;BME280;10473;42.734;24.258;2022-10-17T06:20:15;93275.59;;;16.66;44.98
20628;BME280;10473;42.734;24.258;2022-10-17T06:22:43;93264.56;;;14.91;44.03
20628;BME280;10473;42.734;24.258;2022-10-17T06:25:18;93247.50;;;15.47;44.61
20628;BME280;10473;42.734;24.258;2022-10-17T06:27:45;93267.38;;;15.83;45.15
20628;BME280;10473;42.734;24.258;2022-10-17T06:30:13;93267.31;;;15.46;44.34
20628;BME280;10473;42.734;24.258;2022-10-17T06:32:41;93265.88;;;15.85;45.47
20628;BME280;10473;42.734;24.258;2022-10-17T06:35:11;93282.31;;;15.84;43.51
20628;BME280;10473;42.734;24.258;2022-10-17T06:37:40;93282.00;;;15.89;40.81
20628;BME280;10473;42.734;24.258;2022-10-17T06:40:10;93300.00;;;14.91;42.17
20628;BME280;10473;42.734;24.258;2022-10-17T06:42:42;93311.53;;;15.21;43.10
20628;BME280;10473;42.734;24.258;2022-10-17T06:45:47;93298.75;;;15.86;43.38
20628;BME280;10473;42.734;24.258;2022-10-17T06:48:30;93300.59;;;16.44;43.97
20628;BME280;10473;42.734;24.258;2022-10-17T06:51:13;93297.34;;;17.08;41.98
20628;BME280;10473;42.734;24.258;2022-10-17T06:53:48;93280.28;;;17.84;39.19
20628;BME280;10473;42.734;24.258;2022-10-17T06:56:41;93288.25;;;18.56;38.56
20628;BME280;10473;42.734;24.258;2022-10-17T06:59:22;93295.97;;;19.03;39.95
20628;BME280;10473;42.734;24.258;2022-10-17T07:01:56;93301.69;;;18.80;36.19
20628;BME280;10473;42.734;24.258;2022-10-17T07:04:24;93310.91;;;18.83;37.21
20628;BME280;10473;42.734;24.258;2022-10-17T07:06:53;93297.50;;;19.00;38.87
20628;BME280;10473;42.734;24.258;2022-10-17T07:09:23;93311.69;;;19.85;37.78
20628;BME280;10473;42.734;24.258;2022-10-17T07:11:52;93316.84;;;20.55;35.61
20628;BME280;10473;42.734;24.258;2022-10-17T07:14:19;93327.25;;;20.53;32.42
20628;BME280;10473;42.734;24.258;2022-10-17T07:16:49;93333.53;;;21.08;35.51
20628;BME280;10473;42.734;24.258;2022-10-17T07:19:19;93336.59;;;21.61;31.53
20628;BME280;10473;42.734;24.258;2022-10-17T07:21:49;93321.63;;;21.97;31.06
20628;BME280;10473;42.734;24.258;2022-10-17T07:24:16;93335.41;;;22.46;31.21
20628;BME280;10473;42.734;24.258;2022-10-17T07:26:48;93326.66;;;22.95;32.98
20628;BME280;10473;42.734;24.258;2022-10-17T07:29:16;93328.28;;;23.69;31.39
20628;BME280;10473;42.734;24.258;2022-10-17T07:31:53;93320.56;;;24.13;30.43
20628;BME280;10473;42.734;24.258;2022-10-17T07:34:22;93339.00;;;24.80;26.73
20628;BME280;10473;42.734;24.258;2022-10-17T07:36:53;93335.16;;;23.50;28.72
20628;BME280;10473;42.734;24.258;2022-10-17T07:39:20;93336.34;;;23.23;31.26
20628;BME280;10473;42.734;24.258;2022-10-17T07:41:49;93340.91;;;24.21;28.89
20628;BME280;10473;42.734;24.258;2022-10-17T07:44:17;93332.25;;;24.49;28.18
20628;BME280;10473;42.734;24.258;2022-10-17T07:46:49;93333.38;;;24.91;27.63
20628;BME280;10473;42.734;24.258;2022-10-17T07:49:19;93336.75;;;25.50;28.40
20628;BME280;10473;42.734;24.258;2022-10-17T07:51:47;93338.81;;;25.94;26.14
20628;BME280;10473;42.734;24.258;2022-10-17T07:54:15;93342.75;;;26.50;27.20
20628;BME280;10473;42.734;24.258;2022-10-17T07:56:42;93340.31;;;25.63;24.01
20628;BME280;10473;42.734;24.258;2022-10-17T07:59:16;93339.13;;;25.64;24.39
20628;BME280;10473;42.734;24.258;2022-10-17T08:01:44;93331.41;;;25.95;24.34
20628;BME280;10473;42.734;24.258;2022-10-17T08:04:11;93341.72;;;26.60;25.72
20628;BME280;10473;42.734;24.258;2022-10-17T08:06:40;93334.28;;;27.30;24.88
20628;BME280;10473;42.734;24.258;2022-10-17T08:09:08;93340.06;;;27.70;25.01
20628;BME280;10473;42.734;24.258;2022-10-17T08:11:36;93336.56;;;28.28;23.90
20628;BME280;10473;42.734;24.258;2022-10-17T08:14:04;93337.03;;;28.82;23.89
20628;BME280;10473;42.734;24.258;2022-10-17T08:16:31;93340.69;;;29.31;23.21
20628;BME280;10473;42.734;24.258;2022-10-17T08:18:59;93338.44;;;30.09;22.98
20628;BME280;10473;42.734;24.258;2022-10-17T08:21:27;93345.50;;;30.64;22.22
20628;BME280;10473;42.734;24.258;2022-10-17T08:23:56;93338.50;;;29.48;20.53
20628;BME280;10473;42.734;24.258;2022-10-17T08:26:24;93336.41;;;29.00;20.52
20628;BME280;10473;42.734;24.258;2022-10-17T08:28:52;93329.56;;;27.93;21.94
20628;BME280;10473;42.734;24.258;2022-10-17T08:31:20;93333.16;;;28.03;22.44
20628;BME280;10473;42.734;24.258;2022-10-17T08:33:49;93332.97;;;28.65;21.25
20628;BME280;10473;42.734;24.258;2022-10-17T08:36:18;93347.53;;;29.66;21.43
20628;BME280;10473;42.734;24.258;2022-10-17T08:38:46;93336.81;;;30.29;21.68
20628;BME280;10473;42.734;24.258;2022-10-17T08:41:33;93330.28;;;29.78;20.72
20628;BME280;10473;42.734;24.258;2022-10-17T08:44:10;93335.38;;;28.63;20.59
20628;BME280;10473;42.734;24.258;2022-10-17T08:46:43;93335.00;;;28.52;21.25
20628;BME280;10473;42.734;24.258;2022-10-17T08:49:18;93326.31;;;28.66;21.46
20628;BME280;10473;42.734;24.258;2022-10-17T08:51:52;93338.28;;;29.64;23.30
20628;BME280;10473;42.734;24.258;2022-10-17T08:54:38;93336.56;;;29.97;21.72
20628;BME280;10473;42.734;24.258;2022-10-17T08:57:12;93342.19;;;29.93;22.25
20628;BME280;10473;42.734;24.258;2022-10-17T08:59:41;93332.19;;;29.29;18.48
20628;BME280;10473;42.734;24.258;2022-10-17T09:02:34;93337.03;;;30.04;20.26
20628;BME280;10473;42.734;24.258;2022-10-17T09:05:31;93334.22;;;28.73;21.58
20628;BME280;10473;42.734;24.258;2022-10-17T09:08:13;93307.88;;;28.36;20.13
20628;BME280;10473;42.734;24.258;2022-10-17T09:10:54;93335.59;;;27.88;19.52
20628;BME280;10473;42.734;24.258;2022-10-17T09:13:38;93332.72;;;27.17;20.58
20628;BME280;10473;42.734;24.258;2022-10-17T09:16:22;93344.97;;;27.37;20.09
20628;BME280;10473;42.734;24.258;2022-10-17T09:18:59;93342.22;;;28.00;19.26
20628;BME280;10473;42.734;24.258;2022-10-17T09:21:37;93341.03;;;29.42;20.12
20628;BME280;10473;42.734;24.258;2022-10-17T09:24:12;93332.97;;;28.65;18.66
20628;BME280;10473;42.734;24.258;2022-10-17T09:26:41;93350.19;;;30.27;19.71
20628;BME280;10473;42.734;24.258;2022-10-17T09:29:16;93341.78;;;30.13;18.58
20628;BME280;10473;42.734;24.258;2022-10-17T09:31:50;93344.03;;;30.05;18.17
20628;BME280;10473;42.734;24.258;2022-10-17T09:34:20;93342.56;;;31.30;19.12
20628;BME280;10473;42.734;24.258;2022-10-17T09:36:49;93328.31;;;32.47;17.97
20628;BME280;10473;42.734;24.258;2022-10-17T09:39:19;93330.19;;;33.17;16.51
20628;BME280;10473;42.734;24.258;2022-10-17T09:41:52;93326.97;;;33.62;15.22
20628;BME280;10473;42.734;24.258;2022-10-17T09:44:25;93333.00;;;34.50;15.35
20628;BME280;10473;42.734;24.258;2022-10-17T09:47:07;93337.72;;;35.29;15.64
20628;BME280;10473;42.734;24.258;2022-10-17T09:49:38;93334.97;;;36.22;15.13
20628;BME280;10473;42.734;24.258;2022-10-17T09:52:11;93329.22;;;36.31;15.48
20628;BME280;10473;42.734;24.258;2022-10-17T09:54:43;93331.56;;;37.08;13.60
20628;BME280;10473;42.734;24.258;2022-10-17T09:57:16;93333.69;;;37.35;14.70
20628;BME280;10473;42.734;24.258;2022-10-17T09:59:47;93330.16;;;37.18;14.23
20628;BME280;10473;42.734;24.258;2022-10-17T10:02:23;93327.94;;;35.90;14.30
20628;BME280;10473;42.734;24.258;2022-10-17T10:04:53;93312.03;;;36.58;15.11
20628;BME280;10473;42.734;24.258;2022-10-17T10:07:22;93321.91;;;35.55;14.65
20628;BME280;10473;42.734;24.258;2022-10-17T10:09:50;93320.94;;;34.67;14.66
20628;BME280;10473;42.734;24.258;2022-10-17T10:12:20;93321.84;;;35.24;15.47
20628;BME280;10473;42.734;24.258;2022-10-17T10:14:50;93315.00;;;32.78;15.78
20628;BME280;10473;42.734;24.258;2022-10-17T10:17:34;93308.34;;;32.23;16.53
20628;BME280;10473;42.734;24.258;2022-10-17T10:20:24;93314.75;;;30.87;16.61
20628;BME280;10473;42.734;24.258;2022-10-17T10:23:13;93311.56;;;30.88;17.05
20628;BME280;10473;42.734;24.258;2022-10-17T10:25:54;93306.81;;;31.99;16.41
20628;BME280;10473;42.734;24.258;2022-10-17T10:28:25;93304.44;;;33.29;16.33
20628;BME280;10473;42.734;24.258;2022-10-17T10:30:57;93306.69;;;35.34;16.14
20628;BME280;10473;42.734;24.258;2022-10-17T10:33:27;93312.63;;;36.73;14.24
20628;BME280;10473;42.734;24.258;2022-10-17T10:35:57;93316.56;;;37.42;14.69
20628;BME280;10473;42.734;24.258;2022-10-17T10:38:27;93312.34;;;38.02;14.23
20628;BME280;10473;42.734;24.258;2022-10-17T10:41:00;93313.72;;;38.58;13.01
20628;BME280;10473;42.734;24.258;2022-10-17T10:43:33;93309.28;;;37.23;13.65
20628;BME280;10473;42.734;24.258;2022-10-17T10:46:05;93288.97;;;33.32;14.77
20628;BME280;10473;42.734;24.258;2022-10-17T10:48:34;93278.81;;;32.56;16.51
20628;BME280;10473;42.734;24.258;2022-10-17T10:51:04;93290.81;;;33.69;15.08
20628;BME280;10473;42.734;24.258;2022-10-17T10:53:42;93295.63;;;33.74;15.04
20628;BME280;10473;42.734;24.258;2022-10-17T10:56:16;93294.97;;;34.74;15.45
20628;BME280;10473;42.734;24.258;2022-10-17T10:58:50;93303.50;;;35.21;14.72
20628;BME280;10473;42.734;24.258;2022-10-17T11:01:26;93303.22;;;35.45;14.53
20628;BME280;10473;42.734;24.258;2022-10-17T11:04:11;93294.88;;;35.34;15.15
20628;BME280;10473;42.734;24.258;2022-10-17T11:06:43;93287.28;;;34.18;13.96
20628;BME280;10473;42.734;24.258;2022-10-17T11:09:25;93294.16;;;33.15;14.87
20628;BME280;10473;42.734;24.258;2022-10-17T11:12:00;93283.03;;;32.28;15.53
20628;BME280;10473;42.734;24.258;2022-10-17T11:14:38;93283.06;;;32.57;15.41
20628;BME280;10473;42.734;24.258;2022-10-17T11:17:16;93279.38;;;32.46;16.63
20628;BME280;10473;42.734;24.258;2022-10-17T11:19:51;93281.19;;;32.87;16.42
20628;BME280;10473;42.734;24.258;2022-10-17T11:22:26;93272.16;;;33.15;16.91
20628;BME280;10473;42.734;24.258;2022-10-17T11:24:58;93269.13;;;32.32;16.04
20628;BME280;10473;42.734;24.258;2022-10-17T11:27:27;93273.22;;;33.18;16.04
20628;BME280;10473;42.734;24.258;2022-10-17T11:29:57;93258.16;;;32.46;16.30
20628;BME280;10473;42.734;24.258;2022-10-17T11:32:30;93231.19;;;31.51;15.96
20628;BME280;10473;42.734;24.258;2022-10-17T11:35:03;93262.78;;;30.60;17.75
20628;BME280;10473;42.734;24.258;2022-10-17T11:37:35;93251.03;;;30.86;16.70
20628;BME280;10473;42.734;24.258;2022-10-17T11:40:13;93256.53;;;30.68;17.76
20628;BME280;10473;42.734;24.258;2022-10-17T11:42:48;93259.28;;;30.41;18.70
20628;BME280;10473;42.734;24.258;2022-10-17T11:45:19;93253.16;;;30.64;18.50
20628;BME280;10473;42.734;24.258;2022-10-17T11:47:52;93248.31;;;29.87;18.32
20628;BME280;10473;42.734;24.258;2022-10-17T11:50:26;93229.56;;;29.19;18.87
20628;BME280;10473;42.734;24.258;2022-10-17T11:52:57;93247.13;;;29.09;20.41
20628;BME280;10473;42.734;24.258;2022-10-17T11:55:28;93237.66;;;28.28;20.37
20628;BME280;10473;42.734;24.258;2022-10-17T11:58:04;93235.44;;;26.26;20.68
20628;BME280;10473;42.734;24.258;2022-10-17T12:00:48;93243.41;;;25.44;21.95
20628;BME280;10473;42.734;24.258;2022-10-17T12:03:31;93245.75;;;25.58;23.20
20628;BME280;10473;42.734;24.258;2022-10-17T12:06:07;93246.13;;;25.60;23.08
20628;BME280;10473;42.734;24.258;2022-10-17T12:08:43;93241.38;;;24.80;22.15
20628;BME280;10473;42.734;24.258;2022-10-17T12:11:19;93235.66;;;23.35;23.73
20628;BME280;10473;42.734;24.258;2022-10-17T12:13:52;93235.66;;;22.25;24.48
20628;BME280;10473;42.734;24.258;2022-10-17T12:16:48;93235.06;;;21.81;25.71
20628;BME280;10473;42.734;24.258;2022-10-17T12:19:29;93228.69;;;22.28;25.53
20628;BME280;10473;42.734;24.258;2022-10-17T12:22:17;93238.13;;;21.39;26.50
20628;BME280;10473;42.734;24.258;2022-10-17T12:24:54;93223.91;;;20.87;26.74
20628;BME280;10473;42.734;24.258;2022-10-17T12:27:34;93235.63;;;19.74;28.04
20628;BME280;10473;42.734;24.258;2022-10-17T12:30:05;93216.69;;;20.05;28.51
20628;BME280;10473;42.734;24.258;2022-10-17T12:32:33;93221.53;;;20.42;27.91
20628;BME280;10473;42.734;24.258;2022-10-17T12:35:13;93236.38;;;20.64;28.38
20628;BME280;10473;42.734;24.258;2022-10-17T12:38:18;93225.16;;;20.76;29.20
20628;BME280;10473;42.734;24.258;2022-10-17T12:40:53;93198.19;;;20.79;27.87
20628;BME280;10473;42.734;24.258;2022-10-17T12:43:46;93233.50;;;20.95;27.72
20628;BME280;10473;42.734;24.258;2022-10-17T12:46:54;93186.63;;;20.21;27.77
20628;BME280;10473;42.734;24.258;2022-10-17T12:49:42;93204.47;;;19.83;29.41
20628;BME280;10473;42.734;24.258;2022-10-17T12:55:23;93223.00;;;19.64;29.88
20628;BME280;10473;42.734;24.258;2022-10-17T12:58:13;93191.13;;;19.59;30.59
20628;BME280;10473;42.734;24.258;2022-10-17T13:00:49;93226.69;;;20.12;30.13
20628;BME280;10473;42.734;24.258;2022-10-17T13:03:21;93235.81;;;20.32;30.37
20628;BME280;10473;42.734;24.258;2022-10-17T13:05:51;93233.00;;;19.53;31.23
20628;BME280;10473;42.734;24.258;2022-10-17T13:08:23;93237.16;;;19.75;31.90
20628;BME280;10473;42.734;24.258;2022-10-17T13:10:53;93228.59;;;20.01;29.94
20628;BME280;10473;42.734;24.258;2022-10-17T13:13:25;93235.13;;;20.14;29.75
20628;BME280;10473;42.734;24.258;2022-10-17T13:15:59;93233.59;;;20.13;30.32
20628;BME280;10473;42.734;24.258;2022-10-17T13:18:28;93230.53;;;20.11;30.00
20628;BME280;10473;42.734;24.258;2022-10-17T13:20:58;93218.97;;;20.14;31.15
20628;BME280;10473;42.734;24.258;2022-10-17T13:23:29;93230.44;;;20.32;30.20
20628;BME280;10473;42.734;24.258;2022-10-17T13:26:15;93235.34;;;20.51;29.29
20628;BME280;10473;42.734;24.258;2022-10-17T13:28:46;93233.50;;;20.34;29.70
20628;BME280;10473;42.734;24.258;2022-10-17T13:31:26;93225.88;;;20.18;30.89